South Tamworth, New Hampshire
Current Conditions -  °F | °C
As of 2:15 PM on Sunday 21 Dec 2014 (Local Time) from KLCI Reporting Station
Overcast Overcast  
Wind Chill: 28°   Ceiling: 6000
Heat Index: 28°   Visibility: 10mi
Dew Point: 21°   Wind: 3mph
Humidity: 74%   Direction: 80°E
Pressure: 30.28"   Gusts: NA
Location:  43.82°N, 71.3°W
Report Text: KLCI 211915Z AUTO 08003KT 10SM SCT040 OVC060 M02/M06 A3028 RMK AO1
Loading
Personal Weather Stations






























Interactive Weather Map New forecast layout! Learn more

10-Day Weather Forecast

Advertisements
Track Severe Weather on mobile